createdAt,value
2017-12-10T00:02:02.045Z,2.70
2017-12-10T00:04:29.436Z,2.73
2017-12-10T00:06:56.843Z,2.71
2017-12-10T00:09:24.247Z,2.51
2017-12-10T00:11:51.641Z,2.38
2017-12-10T00:14:19.032Z,2.47
2017-12-10T00:16:46.419Z,2.52
2017-12-10T00:19:13.818Z,2.42
2017-12-10T00:21:41.207Z,2.46
2017-12-10T00:24:08.591Z,2.49
2017-12-10T00:26:35.983Z,2.55
2017-12-10T00:29:03.380Z,2.64
2017-12-10T00:31:30.763Z,2.31
2017-12-10T00:33:58.151Z,2.40
2017-12-10T00:36:25.545Z,2.52
2017-12-10T00:38:52.936Z,2.52
2017-12-10T00:41:20.342Z,2.33
2017-12-10T00:43:47.747Z,2.35
2017-12-10T00:46:15.141Z,2.33
2017-12-10T00:48:42.540Z,2.37
2017-12-10T00:51:09.925Z,2.48
2017-12-10T00:53:37.307Z,2.51
2017-12-10T00:56:04.694Z,2.29
2017-12-10T00:58:32.074Z,2.33
2017-12-10T01:00:59.471Z,2.39
2017-12-10T01:03:26.856Z,2.48
2017-12-10T01:05:54.243Z,2.52
2017-12-10T01:08:21.629Z,2.47
2017-12-10T01:10:49.023Z,2.48
2017-12-10T01:13:16.420Z,2.37
2017-12-10T01:15:43.803Z,2.27
2017-12-10T01:18:11.221Z,2.46
2017-12-10T01:20:38.599Z,2.35
2017-12-10T01:23:05.988Z,2.25
2017-12-10T01:25:33.395Z,2.27
2017-12-10T01:28:00.772Z,2.21
2017-12-10T01:30:28.165Z,2.40
2017-12-10T01:32:55.557Z,2.39
2017-12-10T01:35:22.971Z,2.31
2017-12-10T01:37:50.458Z,2.23
2017-12-10T01:46:03.610Z,2.11
2017-12-10T01:48:31.002Z,2.19
2017-12-10T01:50:58.410Z,2.25
2017-12-10T01:53:33.003Z,2.27
2017-12-10T01:56:00.420Z,2.40
2017-12-10T01:58:27.807Z,2.33
2017-12-10T02:00:55.200Z,2.39
2017-12-10T02:03:22.963Z,2.34
2017-12-10T02:05:50.456Z,2.32
2017-12-10T02:08:17.886Z,2.40
2017-12-10T02:10:45.291Z,2.49
2017-12-10T02:13:12.687Z,2.42
2017-12-10T02:15:40.075Z,2.27
2017-12-10T02:18:07.475Z,2.38
2017-12-10T02:20:34.878Z,2.39
2017-12-10T02:23:02.279Z,2.36
2017-12-10T02:25:29.670Z,2.40
2017-12-10T02:27:57.115Z,2.38
2017-12-10T02:30:24.512Z,2.42
2017-12-10T02:32:51.940Z,2.24
2017-12-10T02:35:19.331Z,2.22
2017-12-10T02:37:46.735Z,2.29
2017-12-10T02:40:14.199Z,2.28
2017-12-10T02:42:41.658Z,2.27
2017-12-10T02:45:09.039Z,2.15
2017-12-10T02:47:36.433Z,2.15
2017-12-10T02:50:03.824Z,2.17
2017-12-10T02:52:31.258Z,2.15
2017-12-10T02:54:58.656Z,2.17
2017-12-10T02:57:26.044Z,2.32
2017-12-10T02:59:53.438Z,2.30
2017-12-10T03:02:20.858Z,2.35
2017-12-10T03:04:48.261Z,2.23
2017-12-10T03:07:15.643Z,2.23
2017-12-10T03:09:43.107Z,2.35
2017-12-10T03:12:10.432Z,2.37
2017-12-10T03:14:37.827Z,2.43
2017-12-10T03:17:05.214Z,2.41
2017-12-10T03:19:32.610Z,2.40
2017-12-10T03:21:59.998Z,2.28
2017-12-10T03:24:27.399Z,2.45
2017-12-10T03:26:54.795Z,2.44
2017-12-10T03:29:22.206Z,2.36
2017-12-10T03:31:49.602Z,2.42
2017-12-10T03:34:16.988Z,2.43
2017-12-10T03:36:44.391Z,2.54
2017-12-10T03:39:11.778Z,2.48
2017-12-10T03:41:39.175Z,2.57
2017-12-10T03:44:06.571Z,2.73
2017-12-10T03:46:33.975Z,2.64
2017-12-10T03:49:01.366Z,2.65
2017-12-10T03:51:28.768Z,2.63
2017-12-10T03:53:56.167Z,2.51
2017-12-10T03:56:23.563Z,2.67
2017-12-10T03:58:50.951Z,2.59
2017-12-10T04:01:18.347Z,2.57
2017-12-10T04:03:45.764Z,2.65
2017-12-10T04:06:13.172Z,2.47
2017-12-10T04:08:40.556Z,2.45
2017-12-10T04:11:07.963Z,2.49
2017-12-10T04:13:35.347Z,2.44
2017-12-10T04:16:02.747Z,2.46
2017-12-10T04:18:30.132Z,2.57
2017-12-10T04:20:57.527Z,2.60
2017-12-10T04:23:24.930Z,2.50
2017-12-10T04:25:52.327Z,2.33
2017-12-10T04:28:19.735Z,2.52
2017-12-10T04:30:47.146Z,2.46
2017-12-10T04:33:14.539Z,2.41
2017-12-10T04:35:41.936Z,2.49
2017-12-10T04:38:09.332Z,2.48
2017-12-10T04:40:36.732Z,2.32
2017-12-10T04:43:04.135Z,2.47
2017-12-10T04:45:31.527Z,2.50
2017-12-10T04:47:58.976Z,2.55
2017-12-10T04:50:26.370Z,2.37
2017-12-10T04:52:53.758Z,2.24
2017-12-10T04:55:21.142Z,2.28
2017-12-10T04:57:48.539Z,2.38
2017-12-10T05:00:15.927Z,2.44
2017-12-10T05:02:43.329Z,2.28
2017-12-10T05:05:10.714Z,2.26
2017-12-10T05:07:38.128Z,2.26
2017-12-10T05:10:05.516Z,2.30
2017-12-10T05:12:32.907Z,2.29
2017-12-10T05:15:00.291Z,2.45
2017-12-10T05:17:27.800Z,2.58
2017-12-10T05:19:55.186Z,2.43
2017-12-10T05:22:22.598Z,2.37
2017-12-10T05:24:50.000Z,2.41
2017-12-10T05:27:17.425Z,2.48
2017-12-10T05:29:44.802Z,2.50
2017-12-10T05:32:12.203Z,2.28
2017-12-10T05:34:39.610Z,2.34
2017-12-10T05:37:07.887Z,2.38
2017-12-10T05:39:35.298Z,2.49
2017-12-10T05:42:02.770Z,2.39
2017-12-10T05:44:30.163Z,2.49
2017-12-10T05:46:57.558Z,2.68
2017-12-10T05:49:25.054Z,2.64
2017-12-10T05:51:52.434Z,2.65
2017-12-10T05:54:19.839Z,2.89
2017-12-10T05:56:47.224Z,2.55
2017-12-10T05:59:14.625Z,2.51
2017-12-10T06:01:42.009Z,2.54
2017-12-10T06:04:09.421Z,2.46
2017-12-10T06:06:36.819Z,2.46
2017-12-10T06:09:04.210Z,2.70
2017-12-10T06:11:31.604Z,2.76
2017-12-10T06:13:59.000Z,2.58
2017-12-10T06:16:26.387Z,2.64
2017-12-10T06:18:53.779Z,2.79
2017-12-10T06:21:21.162Z,2.62
2017-12-10T06:23:48.551Z,2.58
2017-12-10T06:26:15.938Z,2.42
2017-12-10T06:28:43.323Z,2.49
2017-12-10T06:31:10.711Z,2.57
2017-12-10T06:33:38.198Z,2.67
2017-12-10T06:36:05.680Z,2.53
2017-12-10T06:38:33.063Z,2.63
2017-12-10T06:41:00.455Z,2.45
2017-12-10T06:43:27.844Z,2.47
2017-12-10T06:45:55.232Z,2.43
2017-12-10T06:48:22.614Z,2.26
2017-12-10T06:50:49.999Z,2.36
2017-12-10T06:53:17.379Z,2.36
2017-12-10T06:55:44.792Z,2.29
2017-12-10T06:58:12.271Z,2.42
2017-12-10T07:00:39.671Z,2.23
2017-12-10T07:03:07.058Z,2.25
2017-12-10T07:05:34.506Z,2.37
2017-12-10T07:08:01.851Z,2.40
2017-12-10T07:10:29.235Z,2.36
2017-12-10T07:12:56.631Z,2.19
2017-12-10T07:15:24.002Z,2.18
2017-12-10T07:17:51.431Z,2.30
2017-12-10T07:20:18.814Z,2.03
2017-12-10T07:22:46.199Z,2.04
2017-12-10T07:25:13.586Z,1.96
2017-12-10T07:27:40.978Z,2.06
2017-12-10T07:30:08.378Z,2.01
2017-12-10T07:32:35.830Z,1.98
2017-12-10T07:35:03.230Z,2.01
2017-12-10T07:37:30.622Z,2.10
2017-12-10T07:39:58.003Z,2.03
2017-12-10T07:42:25.390Z,1.89
2017-12-10T07:44:52.776Z,1.88
2017-12-10T07:47:20.162Z,2.03
2017-12-10T07:49:47.539Z,2.30
2017-12-10T07:52:14.952Z,2.28
2017-12-10T07:57:09.018Z,2.67
2017-12-10T07:59:36.408Z,2.45
2017-12-10T08:02:03.791Z,2.43
2017-12-10T08:04:31.175Z,2.38
2017-12-10T08:06:58.564Z,2.22
2017-12-10T08:09:25.955Z,2.20
2017-12-10T08:11:53.566Z,2.27
2017-12-10T08:14:20.934Z,2.23
2017-12-10T08:16:48.343Z,2.13
2017-12-10T08:19:15.811Z,1.98
2017-12-10T08:21:43.182Z,1.89
2017-12-10T08:24:10.570Z,1.99
2017-12-10T08:26:37.948Z,1.87
2017-12-10T08:29:05.330Z,2.06
2017-12-10T08:31:32.791Z,2.18
2017-12-10T08:34:00.183Z,2.06
2017-12-10T08:36:27.587Z,2.09
2017-12-10T08:38:54.972Z,2.13
2017-12-10T08:41:22.354Z,2.22
2017-12-10T08:43:49.781Z,2.23
2017-12-10T08:46:17.163Z,2.17
2017-12-10T08:48:44.563Z,2.10
2017-12-10T08:51:11.947Z,2.18
2017-12-10T08:53:39.350Z,2.35
2017-12-10T08:56:06.747Z,2.05
2017-12-10T08:58:34.123Z,1.94
2017-12-10T09:01:01.520Z,1.93
2017-12-10T09:03:28.899Z,1.90
2017-12-10T09:05:56.291Z,1.81
2017-12-10T09:08:23.713Z,1.90
2017-12-10T09:10:51.102Z,1.89
2017-12-10T09:13:18.483Z,1.89
2017-12-10T09:15:45.870Z,2.00
2017-12-10T09:18:13.248Z,2.19
2017-12-10T09:20:40.634Z,2.26
2017-12-10T09:23:08.014Z,2.38
2017-12-10T09:25:35.419Z,2.17
2017-12-10T09:28:02.803Z,1.90
2017-12-10T09:30:30.190Z,1.95
2017-12-10T09:32:57.575Z,2.06
2017-12-10T09:35:24.964Z,2.14
2017-12-10T09:37:52.350Z,2.12
2017-12-10T09:40:19.760Z,2.13
2017-12-10T09:42:47.146Z,2.09
2017-12-10T09:45:14.586Z,2.15
2017-12-10T09:47:41.967Z,2.28
2017-12-10T09:50:09.359Z,2.23
2017-12-10T09:52:37.534Z,2.34
2017-12-10T09:55:05.026Z,2.39
2017-12-10T09:57:32.406Z,2.52
2017-12-10T09:59:59.836Z,2.60
2017-12-10T10:02:27.206Z,2.36
2017-12-10T10:04:54.587Z,2.42
2017-12-10T10:07:21.990Z,2.35
2017-12-10T10:09:49.363Z,2.30
2017-12-10T10:12:16.754Z,2.37
2017-12-10T10:14:44.126Z,2.26
2017-12-10T10:17:11.515Z,2.16
2017-12-10T10:19:38.886Z,2.14
2017-12-10T10:22:06.281Z,2.01
2017-12-10T10:24:33.659Z,2.08
2017-12-10T10:27:01.055Z,2.05
2017-12-10T10:29:28.444Z,2.06
2017-12-10T10:31:55.842Z,1.98
2017-12-10T10:34:23.247Z,1.90
2017-12-10T10:36:50.636Z,1.92
2017-12-10T10:39:18.029Z,2.08
2017-12-10T10:41:45.411Z,2.11
2017-12-10T10:44:12.786Z,2.00
2017-12-10T10:46:40.191Z,2.01
2017-12-10T10:49:07.576Z,2.08
2017-12-10T10:51:34.955Z,2.16
2017-12-10T10:54:02.355Z,1.98
2017-12-10T10:56:29.743Z,1.99
2017-12-10T10:58:57.186Z,2.08
2017-12-10T11:01:24.524Z,2.19
2017-12-10T11:03:51.972Z,2.25
2017-12-10T11:06:19.290Z,2.24
2017-12-10T11:08:46.679Z,2.08
2017-12-10T11:11:14.059Z,2.12
2017-12-10T11:13:41.456Z,2.05
2017-12-10T11:16:08.835Z,2.08
2017-12-10T11:18:36.370Z,2.16
2017-12-10T11:21:03.746Z,2.18
2017-12-10T11:23:31.150Z,2.21
2017-12-10T11:25:58.538Z,2.21
2017-12-10T11:28:25.911Z,2.43
2017-12-10T11:30:53.308Z,2.51
2017-12-10T11:33:20.691Z,2.51
2017-12-10T11:35:48.176Z,2.33
2017-12-10T11:38:15.555Z,2.32
2017-12-10T11:40:42.952Z,2.19
2017-12-10T11:43:10.327Z,2.11
2017-12-10T11:45:37.711Z,2.16
2017-12-10T11:48:05.095Z,2.18
2017-12-10T11:50:32.477Z,2.07
2017-12-10T11:52:59.859Z,2.15
2017-12-10T11:55:27.246Z,2.16
2017-12-10T11:57:54.634Z,2.10
2017-12-10T12:00:22.015Z,2.10
2017-12-10T12:02:49.402Z,2.07
2017-12-10T12:05:17.673Z,2.18
2017-12-10T12:07:45.063Z,2.20
2017-12-10T12:10:12.562Z,2.14
2017-12-10T12:12:39.970Z,2.18
2017-12-10T12:15:07.369Z,2.24
2017-12-10T12:17:34.782Z,2.23
2017-12-10T12:20:02.150Z,2.21
2017-12-10T12:22:29.549Z,2.31
2017-12-10T12:24:56.923Z,2.47
2017-12-10T12:27:24.312Z,2.45
2017-12-10T12:29:51.694Z,2.38
2017-12-10T12:32:19.126Z,2.24
2017-12-10T12:34:46.454Z,2.16
2017-12-10T12:37:18.695Z,2.17
2017-12-10T12:39:46.066Z,2.18
2017-12-10T12:42:13.497Z,2.27
2017-12-10T12:44:40.881Z,2.27
2017-12-10T12:47:08.270Z,2.28
2017-12-10T12:49:35.658Z,2.26
2017-12-10T12:52:03.043Z,2.35
2017-12-10T12:54:30.431Z,2.43
2017-12-10T12:56:57.824Z,2.57
2017-12-10T12:59:25.268Z,2.42
2017-12-10T13:01:52.600Z,2.40
2017-12-10T13:04:19.992Z,2.35
2017-12-10T13:06:47.383Z,2.31
2017-12-10T13:09:14.763Z,2.36
2017-12-10T13:11:42.168Z,2.37
2017-12-10T13:14:09.554Z,2.30
2017-12-10T13:16:36.936Z,2.22
2017-12-10T13:19:04.331Z,2.28
2017-12-10T13:21:31.716Z,2.15
2017-12-10T13:23:59.115Z,2.05
2017-12-10T13:26:26.499Z,2.08
2017-12-10T13:28:53.879Z,2.05
2017-12-10T13:31:21.260Z,2.04
2017-12-10T13:33:48.650Z,2.06
2017-12-10T13:36:16.034Z,2.01
2017-12-10T13:38:43.431Z,1.94
2017-12-10T13:41:10.806Z,1.86
2017-12-10T13:43:38.197Z,1.92
2017-12-10T13:46:05.611Z,1.88
2017-12-10T13:48:33.064Z,1.76
2017-12-10T13:51:00.500Z,1.76
2017-12-10T13:53:27.835Z,1.75
2017-12-10T13:55:55.216Z,1.70
2017-12-10T13:58:22.598Z,1.73
2017-12-10T14:00:49.975Z,1.83
2017-12-10T14:03:17.362Z,1.85
2017-12-10T14:05:44.763Z,1.77
2017-12-10T14:08:12.163Z,1.74
2017-12-10T14:10:39.563Z,1.74
2017-12-10T14:13:06.943Z,1.68
2017-12-10T14:15:34.330Z,1.79
2017-12-10T14:18:01.720Z,1.91
2017-12-10T14:20:29.117Z,1.97
2017-12-10T14:22:57.078Z,2.07
2017-12-10T14:25:24.480Z,2.09
2017-12-10T14:27:51.855Z,2.09
2017-12-10T14:30:19.243Z,2.00
2017-12-10T14:32:46.739Z,2.02
2017-12-10T14:35:14.135Z,2.06
2017-12-10T14:37:41.522Z,1.95
2017-12-10T14:40:08.908Z,1.91
2017-12-10T14:45:10.202Z,1.88
2017-12-10T14:47:37.595Z,1.65
2017-12-10T14:50:04.984Z,1.55
2017-12-10T14:52:32.363Z,1.49
2017-12-10T14:54:59.754Z,1.53
2017-12-10T14:57:27.145Z,1.44
2017-12-10T14:59:54.536Z,1.39
2017-12-10T15:02:21.919Z,1.11
2017-12-10T15:04:49.398Z,1.00
2017-12-10T15:07:16.787Z,0.99
2017-12-10T15:09:44.171Z,1.03
2017-12-10T15:12:11.555Z,1.00
2017-12-10T15:14:38.933Z,1.04
2017-12-10T15:17:06.332Z,0.95
2017-12-10T15:19:33.711Z,0.92
2017-12-10T15:22:01.094Z,0.90
2017-12-10T15:24:28.530Z,0.91
2017-12-10T15:26:55.911Z,0.72
2017-12-10T15:29:23.291Z,0.60
2017-12-10T15:31:50.682Z,0.50
2017-12-10T15:34:18.070Z,0.56
2017-12-10T15:36:45.476Z,0.60
2017-12-10T15:39:12.867Z,0.70
2017-12-10T15:41:40.283Z,0.68
2017-12-10T15:44:07.880Z,0.58
2017-12-10T15:46:35.270Z,0.59
2017-12-10T15:49:02.655Z,0.48
2017-12-10T15:51:30.050Z,0.49
2017-12-10T15:53:57.427Z,0.44
2017-12-10T15:56:24.944Z,0.56
2017-12-10T15:58:52.318Z,0.62
2017-12-10T16:01:19.700Z,0.47
2017-12-10T16:03:47.086Z,0.45
2017-12-10T16:06:14.459Z,0.39
2017-12-10T16:08:41.858Z,0.37
2017-12-10T16:11:09.234Z,0.34
2017-12-10T16:13:36.674Z,0.28
2017-12-10T16:16:04.060Z,0.32
2017-12-10T16:18:31.451Z,0.25
2017-12-10T16:20:58.836Z,0.23
2017-12-10T16:23:26.232Z,0.14
2017-12-10T16:25:54.033Z,0.14
2017-12-10T16:28:21.431Z,0.04
2017-12-10T16:30:48.815Z,0.12
2017-12-10T16:33:16.213Z,0.18
2017-12-10T16:35:43.603Z,0.08
2017-12-10T16:38:10.999Z,-0.04
2017-12-10T16:40:38.380Z,-0.01
2017-12-10T16:43:05.786Z,-0.02
2017-12-10T16:45:33.158Z,0.06
2017-12-10T16:48:00.546Z,0.02
2017-12-10T16:50:27.930Z,0.07
2017-12-10T16:52:55.316Z,0.07
2017-12-10T16:55:22.704Z,0.13
2017-12-10T16:57:50.103Z,0.25
2017-12-10T17:00:17.482Z,0.19
2017-12-10T17:02:44.981Z,0.26
2017-12-10T17:05:12.356Z,0.26
2017-12-10T17:07:39.729Z,0.24
2017-12-10T17:10:07.127Z,0.14
2017-12-10T17:12:34.511Z,0.13
2017-12-10T17:15:01.899Z,0.10
2017-12-10T17:17:29.277Z,0.16
2017-12-10T17:22:30.519Z,0.13
2017-12-10T17:24:57.913Z,0.06
2017-12-10T17:27:25.410Z,0.07
2017-12-10T17:29:52.794Z,0.11
2017-12-10T17:32:20.275Z,0.12
2017-12-10T17:34:47.670Z,-0.03
2017-12-10T17:37:15.083Z,-0.09
2017-12-10T17:39:42.471Z,-0.11
2017-12-10T17:42:09.871Z,-0.07
2017-12-10T17:44:37.276Z,-0.07
2017-12-10T17:47:04.708Z,-0.13
2017-12-10T17:49:32.107Z,-0.19
2017-12-10T17:51:59.482Z,-0.21
2017-12-10T17:54:26.874Z,-0.15
2017-12-10T17:56:54.259Z,-0.26
2017-12-10T17:59:21.664Z,-0.23
2017-12-10T18:01:49.050Z,-0.19
2017-12-10T18:04:16.492Z,-0.25
2017-12-10T18:06:43.871Z,-0.26
2017-12-10T18:09:11.258Z,-0.26
2017-12-10T18:11:38.639Z,-0.31
2017-12-10T18:14:06.112Z,-0.25
2017-12-10T18:16:33.495Z,-0.19
2017-12-10T18:19:00.888Z,-0.25
2017-12-10T18:21:28.334Z,-0.34
2017-12-10T18:23:55.732Z,-0.41
2017-12-10T18:26:23.178Z,-0.41
2017-12-10T18:28:50.571Z,-0.41
2017-12-10T18:31:17.958Z,-0.38
2017-12-10T18:33:45.355Z,-0.35
2017-12-10T18:36:12.739Z,-0.37
2017-12-10T18:38:40.130Z,-0.38
2017-12-10T18:41:07.534Z,-0.34
2017-12-10T18:43:34.962Z,-0.40
2017-12-10T18:46:02.348Z,-0.39
2017-12-10T18:48:29.730Z,-0.36
2017-12-10T18:50:57.118Z,-0.32
2017-12-10T18:53:25.031Z,-0.34
2017-12-10T18:55:52.458Z,-0.42
2017-12-10T18:58:19.843Z,-0.46
2017-12-10T19:00:47.272Z,-0.46
2017-12-10T19:03:14.654Z,-0.43
2017-12-10T19:05:42.056Z,-0.36
2017-12-10T19:08:09.455Z,-0.29
2017-12-10T19:10:36.838Z,-0.27
2017-12-10T19:13:04.227Z,-0.37
2017-12-10T19:15:31.623Z,-0.36
2017-12-10T19:17:59.001Z,-0.31
2017-12-10T19:20:26.394Z,-0.35
2017-12-10T19:22:53.776Z,-0.35
2017-12-10T19:25:21.171Z,-0.27
2017-12-10T19:27:48.559Z,-0.35
2017-12-10T19:30:15.958Z,-0.30
2017-12-10T19:32:43.342Z,-0.34
2017-12-10T19:35:10.715Z,-0.41
2017-12-10T19:37:38.106Z,-0.47
2017-12-10T19:40:05.486Z,-0.53
2017-12-10T19:42:32.885Z,-0.53
2017-12-10T19:45:00.288Z,-0.56
2017-12-10T19:47:27.670Z,-0.59
2017-12-10T19:49:55.050Z,-0.52
2017-12-10T19:52:22.444Z,-0.46
2017-12-10T19:54:50.084Z,-0.46
2017-12-10T19:57:17.551Z,-0.50
2017-12-10T19:59:44.944Z,-0.54
2017-12-10T20:02:12.404Z,-0.51
2017-12-10T20:04:39.818Z,-0.49
2017-12-10T20:07:07.210Z,-0.53
2017-12-10T20:09:34.591Z,-0.49
2017-12-10T20:12:01.998Z,-0.35
2017-12-10T20:14:29.388Z,-0.18
2017-12-10T20:16:56.780Z,-0.10
2017-12-10T20:19:24.176Z,-0.22
2017-12-10T20:21:51.564Z,-0.29
2017-12-10T20:24:18.979Z,-0.29
2017-12-10T20:26:46.375Z,-0.28
2017-12-10T20:29:13.760Z,-0.22
2017-12-10T20:31:41.150Z,-0.20
2017-12-10T20:34:08.531Z,-0.12
2017-12-10T20:36:35.918Z,0.01
2017-12-10T20:39:03.306Z,-0.03
2017-12-10T20:41:30.692Z,-0.09
2017-12-10T20:43:58.084Z,-0.13
2017-12-10T20:46:25.462Z,-0.10
2017-12-10T20:48:52.856Z,-0.03
2017-12-10T20:51:20.295Z,0.01
2017-12-10T20:53:47.683Z,0.04
2017-12-10T20:56:15.140Z,0.10
2017-12-10T20:58:42.543Z,0.08
2017-12-10T21:01:09.922Z,0.14
2017-12-10T21:03:37.316Z,0.21
2017-12-10T21:06:04.712Z,0.25
2017-12-10T21:08:32.101Z,0.13
2017-12-10T21:10:59.485Z,0.16
2017-12-10T21:13:26.875Z,0.30
2017-12-10T21:15:54.246Z,0.37
2017-12-10T21:18:21.631Z,0.23
2017-12-10T21:20:49.015Z,0.38
2017-12-10T21:23:16.411Z,0.49
2017-12-10T21:25:43.855Z,0.55
2017-12-10T21:28:11.239Z,0.61
2017-12-10T21:30:38.623Z,0.52
2017-12-10T21:33:06.011Z,0.54
2017-12-10T21:35:33.382Z,0.51
2017-12-10T21:38:00.782Z,0.58
2017-12-10T21:40:28.167Z,0.60
2017-12-10T21:42:55.547Z,0.59
2017-12-10T21:45:22.933Z,0.62
2017-12-10T21:47:50.306Z,0.62
2017-12-10T21:50:17.694Z,0.70
2017-12-10T21:52:45.081Z,0.77
2017-12-10T21:55:12.463Z,0.77
2017-12-10T21:57:39.859Z,0.79
2017-12-10T22:00:07.268Z,0.86
2017-12-10T22:02:34.652Z,0.95
2017-12-10T22:05:02.030Z,0.98
2017-12-10T22:07:29.418Z,1.12
2017-12-10T22:09:56.798Z,1.20
2017-12-10T22:12:24.295Z,1.23
2017-12-10T22:14:51.967Z,1.15
2017-12-10T22:17:19.354Z,1.17
2017-12-10T22:19:46.742Z,1.30
2017-12-10T22:22:14.114Z,1.34
2017-12-10T22:24:41.504Z,1.32
2017-12-10T22:27:08.887Z,1.34
2017-12-10T22:29:36.274Z,1.38
2017-12-10T22:32:03.657Z,1.40
2017-12-10T22:34:31.042Z,1.50
2017-12-10T22:36:58.547Z,1.48
2017-12-10T22:39:25.931Z,1.56
2017-12-10T22:41:53.308Z,1.65
2017-12-10T22:44:20.699Z,1.76
2017-12-10T22:46:48.079Z,1.78
2017-12-10T22:49:15.456Z,1.90
2017-12-10T22:51:42.841Z,1.86
2017-12-10T22:54:10.223Z,1.80
2017-12-10T22:56:37.612Z,2.02
2017-12-10T22:59:04.987Z,2.04
2017-12-10T23:01:32.420Z,2.21
2017-12-10T23:03:59.791Z,2.21
2017-12-10T23:06:27.258Z,2.16
2017-12-10T23:08:54.635Z,2.31
2017-12-10T23:11:22.022Z,2.35
2017-12-10T23:13:50.966Z,2.44
2017-12-10T23:16:32.108Z,2.47
2017-12-10T23:18:59.495Z,2.66
2017-12-10T23:21:26.873Z,2.85
2017-12-10T23:23:54.250Z,3.11
2017-12-10T23:26:21.638Z,3.42
2017-12-10T23:28:49.038Z,3.52
2017-12-10T23:31:16.423Z,3.56
2017-12-10T23:33:43.824Z,3.54
2017-12-10T23:36:11.222Z,3.56
2017-12-10T23:38:38.602Z,3.81
2017-12-10T23:41:06.039Z,3.81
2017-12-10T23:43:33.424Z,3.95
2017-12-10T23:46:00.815Z,3.93
2017-12-10T23:48:28.307Z,3.84
2017-12-10T23:50:55.759Z,3.48
2017-12-10T23:53:23.221Z,3.38
2017-12-10T23:55:50.605Z,3.26
2017-12-10T23:58:17.997Z,3.36
